createdAt,value
2018-04-17T00:01:09.312Z,4.43
2018-04-17T00:03:37.589Z,4.13
2018-04-17T00:06:05.867Z,4.40
2018-04-17T00:08:34.000Z,3.90
2018-04-17T00:11:02.089Z,4.63
2018-04-17T00:13:30.475Z,4.30
2018-04-17T00:15:58.859Z,4.10
2018-04-17T00:18:27.173Z,4.20
2018-04-17T00:20:55.295Z,3.90
2018-04-17T00:23:23.697Z,4.27
2018-04-17T00:25:51.926Z,3.80
2018-04-17T00:28:20.401Z,3.53
2018-04-17T00:30:50.347Z,3.63
2018-04-17T00:33:18.799Z,4.20
2018-04-17T00:35:47.101Z,4.57
2018-04-17T00:38:15.368Z,3.80
2018-04-17T00:40:43.503Z,4.00
2018-04-17T00:43:11.618Z,4.07
2018-04-17T00:45:39.729Z,4.03
2018-04-17T00:48:07.934Z,4.07
2018-04-17T00:50:36.086Z,3.60
2018-04-17T00:53:16.268Z,3.70
2018-04-17T00:55:44.386Z,3.63
2018-04-17T00:58:12.519Z,3.70
2018-04-17T01:00:40.671Z,4.00
2018-04-17T01:03:09.021Z,3.63
2018-04-17T01:05:40.181Z,3.43
2018-04-17T01:08:08.299Z,4.40
2018-04-17T01:10:36.405Z,4.00
2018-04-17T01:13:04.610Z,4.37
2018-04-17T01:15:32.815Z,4.13
2018-04-17T01:18:00.915Z,3.90
2018-04-17T01:20:29.284Z,4.57
2018-04-17T01:22:57.359Z,3.50
2018-04-17T01:25:25.710Z,3.57
2018-04-17T01:27:54.098Z,3.87
2018-04-17T01:30:22.338Z,3.70
2018-04-17T01:32:50.524Z,4.27
2018-04-17T01:35:18.922Z,3.63
2018-04-17T01:37:47.210Z,4.07
2018-04-17T01:40:15.319Z,4.10
2018-04-17T01:42:43.428Z,3.83
2018-04-17T01:45:11.840Z,3.57
2018-04-17T01:47:40.026Z,3.80
2018-04-17T01:50:08.125Z,4.10
2018-04-17T01:52:36.322Z,3.97
2018-04-17T01:55:04.414Z,4.00
2018-04-17T01:57:33.203Z,4.97
2018-04-17T02:00:01.728Z,4.53
2018-04-17T02:02:29.820Z,4.43
2018-04-17T02:04:57.927Z,4.57
2018-04-17T02:07:26.040Z,5.30
2018-04-17T02:09:54.374Z,5.33
2018-04-17T02:12:22.835Z,4.87
2018-04-17T02:14:51.134Z,5.13
2018-04-17T02:17:19.490Z,5.10
2018-04-17T02:19:47.900Z,4.87
2018-04-17T02:22:16.142Z,4.87
2018-04-17T02:24:44.326Z,4.87
2018-04-17T02:27:12.429Z,5.13
2018-04-17T02:29:40.508Z,5.53
2018-04-17T02:32:08.886Z,5.70
2018-04-17T02:34:37.246Z,5.30
2018-04-17T02:37:05.349Z,5.30
2018-04-17T02:39:33.590Z,4.80
2018-04-17T02:42:01.754Z,5.10
2018-04-17T02:44:29.889Z,5.03
2018-04-17T02:46:57.985Z,4.93
2018-04-17T02:49:26.092Z,4.43
2018-04-17T02:51:54.345Z,4.57
2018-04-17T02:54:22.430Z,4.57
2018-04-17T02:56:50.725Z,4.80
2018-04-17T02:59:19.166Z,5.17
2018-04-17T03:01:47.549Z,4.80
2018-04-17T03:04:15.635Z,4.60
2018-04-17T03:06:43.929Z,4.53
2018-04-17T03:09:12.052Z,4.73
2018-04-17T03:11:40.169Z,4.77
2018-04-17T03:14:08.522Z,4.23
2018-04-17T03:16:36.790Z,4.53
2018-04-17T03:19:04.926Z,4.20
2018-04-17T03:21:33.244Z,3.93
2018-04-17T03:24:01.433Z,4.60
2018-04-17T03:26:29.804Z,4.77
2018-04-17T03:28:57.893Z,4.33
2018-04-17T03:31:26.137Z,4.40
2018-04-17T03:33:54.257Z,4.27
2018-04-17T03:36:22.341Z,5.00
2018-04-17T03:38:50.438Z,4.13
2018-04-17T03:41:18.556Z,4.23
2018-04-17T03:43:46.820Z,4.67
2018-04-17T03:46:15.182Z,4.60
2018-04-17T03:48:43.264Z,4.50
2018-04-17T03:51:11.361Z,5.43
2018-04-17T03:53:39.482Z,4.83
2018-04-17T03:56:07.860Z,4.60
2018-04-17T03:58:36.246Z,5.33
2018-04-17T04:01:04.613Z,4.77
2018-04-17T04:03:32.718Z,5.73
2018-04-17T04:06:01.071Z,5.50
2018-04-17T04:08:29.233Z,5.33
2018-04-17T04:10:57.407Z,5.37
2018-04-17T04:13:25.509Z,5.70
2018-04-17T04:15:53.590Z,5.43
2018-04-17T04:18:33.731Z,5.93
2018-04-17T04:21:13.775Z,6.33
2018-04-17T04:23:53.490Z,6.17
2018-04-17T04:26:29.095Z,6.00
2018-04-17T04:28:57.363Z,5.33
2018-04-17T04:31:25.468Z,5.40
2018-04-17T04:33:53.559Z,5.70
2018-04-17T04:36:21.790Z,6.57
2018-04-17T04:38:49.929Z,5.53
2018-04-17T04:41:18.293Z,7.23
2018-04-17T04:43:46.431Z,6.07
2018-04-17T04:46:14.713Z,6.17
2018-04-17T04:48:43.224Z,7.30
2018-04-17T04:51:11.377Z,6.77
2018-04-17T04:53:39.533Z,6.47
2018-04-17T04:56:07.636Z,7.33
2018-04-17T04:58:35.756Z,6.53
2018-04-17T05:01:04.205Z,6.83
2018-04-17T05:03:32.862Z,7.23
2018-04-17T05:06:01.171Z,7.20
2018-04-17T05:08:29.307Z,7.17
2018-04-17T05:10:57.639Z,6.90
2018-04-17T05:13:25.763Z,6.20
2018-04-17T05:15:54.178Z,7.40
2018-04-17T05:18:22.516Z,8.20
2018-04-17T05:20:51.133Z,7.03
2018-04-17T05:23:19.306Z,6.93
2018-04-17T05:25:47.803Z,6.67
2018-04-17T05:28:16.161Z,7.47
2018-04-17T05:30:44.418Z,6.67
2018-04-17T05:33:12.771Z,8.63
2018-04-17T05:35:41.074Z,7.70
2018-04-17T05:38:09.550Z,8.07
2018-04-17T05:40:37.913Z,7.90
2018-04-17T05:43:06.213Z,8.33
2018-04-17T05:45:34.898Z,9.13
2018-04-17T05:48:02.986Z,9.90
2018-04-17T05:50:31.341Z,9.00
2018-04-17T05:53:00.020Z,8.73
2018-04-17T05:55:28.726Z,8.63
2018-04-17T05:57:56.884Z,8.70
2018-04-17T06:00:25.174Z,9.30
2018-04-17T06:02:53.498Z,10.60
2018-04-17T06:05:21.769Z,8.93
2018-04-17T06:07:50.361Z,10.33
2018-04-17T06:10:18.693Z,11.17
2018-04-17T06:12:50.541Z,10.43
2018-04-17T06:15:20.157Z,9.83
2018-04-17T06:18:00.052Z,10.27
2018-04-17T06:20:28.181Z,12.10
2018-04-17T06:22:56.615Z,11.67
2018-04-17T06:25:25.314Z,11.27
2018-04-17T06:27:53.498Z,11.87
2018-04-17T06:30:21.808Z,9.37
2018-04-17T06:32:50.142Z,10.37
2018-04-17T06:35:18.539Z,9.90
2018-04-17T06:37:46.864Z,10.20
2018-04-17T06:40:15.279Z,10.10
2018-04-17T06:42:43.404Z,9.97
2018-04-17T06:45:11.765Z,8.37
2018-04-17T06:47:40.304Z,7.10
2018-04-17T06:50:08.622Z,8.23
2018-04-17T06:52:36.868Z,7.60
2018-04-17T06:55:05.777Z,7.07
2018-04-17T06:57:34.228Z,7.53
2018-04-17T07:00:02.655Z,8.33
2018-04-17T07:02:30.754Z,7.83
2018-04-17T07:04:59.027Z,8.00
2018-04-17T07:07:27.330Z,6.43
2018-04-17T07:09:55.743Z,7.70
2018-04-17T07:12:23.848Z,5.80
2018-04-17T07:14:52.380Z,6.17
2018-04-17T07:17:20.567Z,5.93
2018-04-17T07:19:48.880Z,7.63
2018-04-17T07:22:17.377Z,7.10
2018-04-17T07:24:45.697Z,7.57
2018-04-17T07:27:13.794Z,7.33
2018-04-17T07:29:43.142Z,6.90
2018-04-17T07:32:11.252Z,7.80
2018-04-17T07:34:39.639Z,7.83
2018-04-17T07:37:07.990Z,8.83
2018-04-17T07:39:36.086Z,7.33
2018-04-17T07:42:04.447Z,7.30
2018-04-17T07:44:32.992Z,7.10
2018-04-17T07:47:12.778Z,7.57
2018-04-17T07:49:41.144Z,8.77
2018-04-17T07:52:09.438Z,9.40
2018-04-17T07:54:37.577Z,8.10
2018-04-17T07:57:05.692Z,9.57
2018-04-17T07:59:34.057Z,8.10
2018-04-17T08:02:02.403Z,8.37
2018-04-17T08:04:30.530Z,8.63
2018-04-17T08:06:58.747Z,7.60
2018-04-17T08:09:27.009Z,9.10
2018-04-17T08:11:55.226Z,7.77
2018-04-17T08:14:23.510Z,7.70
2018-04-17T08:16:52.776Z,8.83
2018-04-17T08:19:20.884Z,8.00
2018-04-17T08:21:49.425Z,7.20
2018-04-17T08:24:17.829Z,6.37
2018-04-17T08:26:46.016Z,6.40
2018-04-17T08:29:14.523Z,6.13
2018-04-17T08:31:43.014Z,5.73
2018-04-17T08:34:11.091Z,5.70
2018-04-17T08:36:39.807Z,5.70
2018-04-17T08:39:07.924Z,5.87
2018-04-17T08:41:36.188Z,6.37
2018-04-17T08:44:04.628Z,5.73
2018-04-17T08:46:32.892Z,5.63
2018-04-17T08:49:01.329Z,5.30
2018-04-17T08:51:29.948Z,6.90
2018-04-17T08:53:58.365Z,6.03
2018-04-17T08:56:27.131Z,6.57
2018-04-17T08:58:55.319Z,6.80
2018-04-17T09:01:23.466Z,5.80
2018-04-17T09:03:51.678Z,5.77
2018-04-17T09:06:20.337Z,5.70
2018-04-17T09:08:48.537Z,5.03
2018-04-17T09:11:17.093Z,5.43
2018-04-17T09:13:45.368Z,5.40
2018-04-17T09:16:13.774Z,5.87
2018-04-17T09:18:42.454Z,6.40
2018-04-17T09:21:10.527Z,6.70
2018-04-17T09:23:38.882Z,7.47
2018-04-17T09:26:07.604Z,7.03
2018-04-17T09:28:36.278Z,6.40
2018-04-17T09:31:04.823Z,6.67
2018-04-17T09:33:33.133Z,6.63
2018-04-17T09:36:01.347Z,6.73
2018-04-17T09:38:30.069Z,6.57
2018-04-17T09:40:58.291Z,6.70
2018-04-17T09:43:26.776Z,7.20
2018-04-17T09:45:55.315Z,7.83
2018-04-17T09:48:23.721Z,6.87
2018-04-17T09:50:52.219Z,7.37
2018-04-17T09:53:20.393Z,7.37
2018-04-17T09:55:48.627Z,7.20
2018-04-17T09:58:16.895Z,7.10
2018-04-17T10:00:50.650Z,6.90
2018-04-17T10:03:18.907Z,6.90
2018-04-17T10:05:47.006Z,6.97
2018-04-17T10:08:15.413Z,7.33
2018-04-17T10:10:43.769Z,6.50
2018-04-17T10:13:12.021Z,7.47
2018-04-17T10:15:40.463Z,8.07
2018-04-17T10:18:08.572Z,8.83
2018-04-17T10:20:37.021Z,8.00
2018-04-17T10:23:05.703Z,7.43
2018-04-17T10:25:33.837Z,8.47
2018-04-17T10:28:02.385Z,9.30
2018-04-17T10:30:30.470Z,8.73
2018-04-17T10:32:58.825Z,7.20
2018-04-17T10:35:27.487Z,6.90
2018-04-17T10:37:55.589Z,7.70
2018-04-17T10:40:23.728Z,8.53
2018-04-17T10:42:51.970Z,9.10
2018-04-17T10:45:20.490Z,8.03
2018-04-17T10:47:48.785Z,7.10
2018-04-17T10:50:17.126Z,8.50
2018-04-17T10:52:45.298Z,8.70
2018-04-17T10:55:13.604Z,7.80
2018-04-17T10:57:41.779Z,8.53
2018-04-17T11:00:10.066Z,8.90
2018-04-17T11:02:38.424Z,8.20
2018-04-17T11:05:06.904Z,8.17
2018-04-17T11:07:35.119Z,7.70
2018-04-17T11:10:03.197Z,8.57
2018-04-17T11:12:31.313Z,8.23
2018-04-17T11:14:59.501Z,7.77
2018-04-17T11:17:28.079Z,8.50
2018-04-17T11:19:56.261Z,7.30
2018-04-17T11:22:24.441Z,7.90
2018-04-17T11:24:52.646Z,7.47
2018-04-17T11:27:20.784Z,7.90
2018-04-17T11:29:49.173Z,6.93
2018-04-17T11:32:17.537Z,7.37
2018-04-17T11:34:45.914Z,6.40
2018-04-17T11:37:14.315Z,8.13
2018-04-17T11:39:42.545Z,7.43
2018-04-17T11:42:10.664Z,7.80
2018-04-17T11:44:38.796Z,7.93
2018-04-17T11:47:07.153Z,6.93
2018-04-17T11:49:35.415Z,7.77
2018-04-17T11:52:03.542Z,8.00
2018-04-17T11:54:32.012Z,7.97
2018-04-17T11:57:00.395Z,7.83
2018-04-17T11:59:28.664Z,7.97
2018-04-17T12:01:57.027Z,7.10
2018-04-17T12:04:25.437Z,8.20
2018-04-17T12:06:53.538Z,7.20
2018-04-17T12:09:21.978Z,7.93
2018-04-17T12:11:50.323Z,7.17
2018-04-17T12:14:18.631Z,6.97
2018-04-17T12:16:47.100Z,7.40
2018-04-17T12:19:15.315Z,7.97
2018-04-17T12:21:44.638Z,7.43
2018-04-17T12:24:12.846Z,7.77
2018-04-17T12:26:41.150Z,8.30
2018-04-17T12:29:09.582Z,8.13
2018-04-17T12:31:37.961Z,8.20
2018-04-17T12:34:06.291Z,8.27
2018-04-17T12:36:34.605Z,8.57
2018-04-17T12:39:02.840Z,7.90
2018-04-17T12:41:31.014Z,7.43
2018-04-17T12:43:59.299Z,7.73
2018-04-17T12:46:27.637Z,7.93
2018-04-17T12:48:55.972Z,8.63
2018-04-17T12:51:24.423Z,8.13
2018-04-17T12:53:53.064Z,7.40
2018-04-17T12:56:21.243Z,7.83
2018-04-17T12:58:49.538Z,8.07
2018-04-17T13:01:17.740Z,7.60
2018-04-17T13:03:46.028Z,7.93
2018-04-17T13:06:14.335Z,8.10
2018-04-17T13:08:42.628Z,9.03
2018-04-17T13:11:11.123Z,9.17
2018-04-17T13:13:39.497Z,7.73
2018-04-17T13:16:07.673Z,8.47
2018-04-17T13:18:35.798Z,8.00
2018-04-17T13:21:03.918Z,8.30
2018-04-17T13:23:32.368Z,9.10
2018-04-17T13:26:00.489Z,7.63
2018-04-17T13:28:28.758Z,7.60
2018-04-17T13:30:57.014Z,8.30
2018-04-17T13:33:25.310Z,7.53
2018-04-17T13:35:53.698Z,7.30
2018-04-17T13:38:22.122Z,7.87
2018-04-17T13:40:50.305Z,7.30
2018-04-17T13:43:18.398Z,7.37
2018-04-17T13:45:46.511Z,7.87
2018-04-17T13:48:14.858Z,9.10
2018-04-17T13:50:42.994Z,8.90
2018-04-17T13:53:11.159Z,8.30
2018-04-17T13:55:39.839Z,8.10
2018-04-17T13:58:08.274Z,7.37
2018-04-17T14:00:36.430Z,7.73
2018-04-17T14:03:04.709Z,7.63
2018-04-17T14:05:32.909Z,7.43
2018-04-17T14:08:01.117Z,6.53
2018-04-17T14:10:29.556Z,6.93
2018-04-17T14:12:58.204Z,7.27
2018-04-17T14:15:26.273Z,8.13
2018-04-17T14:17:54.663Z,7.20
2018-04-17T14:20:22.966Z,7.17
2018-04-17T14:22:51.333Z,8.50
2018-04-17T14:25:19.583Z,7.10
2018-04-17T14:27:48.262Z,7.40
2018-04-17T14:30:16.379Z,6.27
2018-04-17T14:32:44.626Z,7.83
2018-04-17T14:35:13.294Z,5.70
2018-04-17T14:37:41.606Z,5.60
2018-04-17T14:40:10.055Z,6.83
2018-04-17T14:42:38.367Z,7.70
2018-04-17T14:45:06.593Z,7.37
2018-04-17T14:47:35.149Z,6.40
2018-04-17T14:50:03.634Z,8.13
2018-04-17T14:52:32.106Z,6.50
2018-04-17T14:55:00.251Z,7.13
2018-04-17T14:57:28.753Z,6.80
2018-04-17T14:59:57.080Z,6.90
2018-04-17T15:02:25.448Z,8.10
2018-04-17T15:04:53.577Z,7.87
2018-04-17T15:07:22.079Z,7.90
2018-04-17T15:09:50.426Z,7.60
2018-04-17T15:12:18.778Z,8.30
2018-04-17T15:14:47.156Z,8.17
2018-04-17T15:17:15.415Z,6.67
2018-04-17T15:19:43.865Z,7.67
2018-04-17T15:22:12.456Z,7.10
2018-04-17T15:24:40.544Z,7.40
2018-04-17T15:27:08.912Z,7.40
2018-04-17T15:29:37.063Z,7.33
2018-04-17T15:32:05.202Z,7.20
2018-04-17T15:34:33.466Z,7.33
2018-04-17T15:37:01.649Z,6.87
2018-04-17T15:39:30.208Z,5.17
2018-04-17T15:41:58.349Z,6.23
2018-04-17T15:44:26.480Z,6.73
2018-04-17T15:46:55.069Z,6.17
2018-04-17T15:49:23.436Z,7.13
2018-04-17T15:51:53.139Z,6.37
2018-04-17T15:54:21.314Z,6.77
2018-04-17T15:56:49.597Z,6.50
2018-04-17T15:59:18.009Z,6.53
2018-04-17T16:01:46.351Z,6.37
2018-04-17T16:04:14.712Z,6.30
2018-04-17T16:06:43.107Z,6.17
2018-04-17T16:09:11.400Z,6.27
2018-04-17T16:11:39.759Z,6.00
2018-04-17T16:14:07.972Z,7.57
2018-04-17T16:16:36.105Z,6.87
2018-04-17T16:19:04.274Z,6.27
2018-04-17T16:21:32.744Z,6.87
2018-04-17T16:24:01.091Z,7.87
2018-04-17T16:26:29.259Z,8.43
2018-04-17T16:28:57.898Z,6.73
2018-04-17T16:31:26.581Z,6.97
2018-04-17T16:33:55.082Z,7.07
2018-04-17T16:36:23.562Z,6.63
2018-04-17T16:38:51.913Z,5.90
2018-04-17T16:41:20.276Z,6.37
2018-04-17T16:43:48.758Z,5.97
2018-04-17T16:46:16.974Z,6.30
2018-04-17T16:48:45.538Z,5.37
2018-04-17T16:51:13.771Z,6.00
2018-04-17T16:53:42.223Z,6.13
2018-04-17T16:56:10.636Z,5.80
2018-04-17T16:58:38.866Z,6.53
2018-04-17T17:01:07.117Z,6.30
2018-04-17T17:03:35.493Z,5.93
2018-04-17T17:06:03.803Z,6.13
2018-04-17T17:08:32.199Z,5.67
2018-04-17T17:11:00.521Z,5.93
2018-04-17T17:13:28.916Z,5.53
2018-04-17T17:15:57.038Z,5.13
2018-04-17T17:18:25.352Z,6.07
2018-04-17T17:20:53.718Z,6.00
2018-04-17T17:23:22.144Z,5.50
2018-04-17T17:25:50.292Z,6.10
2018-04-17T17:28:18.578Z,5.37
2018-04-17T17:30:46.977Z,4.60
2018-04-17T17:33:15.265Z,5.50
2018-04-17T17:35:43.319Z,5.50
2018-04-17T17:38:11.595Z,5.50
2018-04-17T17:40:39.731Z,4.80
2018-04-17T17:43:08.023Z,6.33
2018-04-17T17:45:36.367Z,6.23
2018-04-17T17:48:04.698Z,6.80
2018-04-17T17:50:33.107Z,6.60
2018-04-17T17:53:01.202Z,6.90
2018-04-17T17:55:29.594Z,6.53
2018-04-17T17:57:57.773Z,8.00
2018-04-17T18:00:25.975Z,6.47
2018-04-17T18:02:54.189Z,5.90
2018-04-17T18:05:22.730Z,6.40
2018-04-17T18:07:50.835Z,6.50
2018-04-17T18:10:19.191Z,5.70
2018-04-17T18:12:47.509Z,5.47
2018-04-17T18:15:15.613Z,4.70
2018-04-17T18:17:43.689Z,5.10
2018-04-17T18:20:11.815Z,5.40
2018-04-17T18:22:40.114Z,7.77
2018-04-17T18:25:08.419Z,7.07
2018-04-17T18:27:36.975Z,6.93
2018-04-17T18:30:05.090Z,7.47
2018-04-17T18:32:33.348Z,6.43
2018-04-17T18:35:01.745Z,7.23
2018-04-17T18:37:29.827Z,5.90
2018-04-17T18:39:58.174Z,6.40
2018-04-17T18:42:26.242Z,6.00
2018-04-17T18:44:54.706Z,6.50
2018-04-17T18:47:22.992Z,5.53
2018-04-17T18:49:51.314Z,5.37
2018-04-17T18:52:19.399Z,5.23
2018-04-17T18:54:47.815Z,4.60
2018-04-17T18:57:15.984Z,5.43
2018-04-17T18:59:44.294Z,5.00
2018-04-17T19:02:12.674Z,5.50
2018-04-17T19:04:40.970Z,5.33
2018-04-17T19:07:09.110Z,5.60
2018-04-17T19:09:37.405Z,6.40
2018-04-17T19:12:05.641Z,5.70
2018-04-17T19:14:33.986Z,6.07
2018-04-17T19:17:02.396Z,6.43
2018-04-17T19:19:30.726Z,6.73
2018-04-17T19:21:58.858Z,7.13
2018-04-17T19:24:26.970Z,6.67
2018-04-17T19:26:55.242Z,6.47
2018-04-17T19:29:23.334Z,6.50
2018-04-17T19:31:51.460Z,6.23
2018-04-17T19:34:19.779Z,7.23
2018-04-17T19:36:47.867Z,7.33
2018-04-17T19:39:16.152Z,6.63
2018-04-17T19:41:44.532Z,7.83
2018-04-17T19:44:12.944Z,7.20
2018-04-17T19:46:41.271Z,7.57
2018-04-17T19:49:09.401Z,7.83
2018-04-17T19:51:37.716Z,7.23
2018-04-17T19:54:05.844Z,9.47
2018-04-17T19:56:34.219Z,10.10
2018-04-17T19:59:02.649Z,9.80
2018-04-17T20:01:30.978Z,10.43
2018-04-17T20:03:59.374Z,11.13
2018-04-17T20:06:27.548Z,10.67
2018-04-17T20:08:55.836Z,11.67
2018-04-17T20:11:24.318Z,10.13
2018-04-17T20:13:52.397Z,10.57
2018-04-17T20:16:20.503Z,10.43
2018-04-17T20:18:48.715Z,10.47
2018-04-17T20:21:16.824Z,9.80
2018-04-17T20:23:45.154Z,10.33
2018-04-17T20:26:13.483Z,10.40
2018-04-17T20:28:41.607Z,11.27
2018-04-17T20:31:09.985Z,10.50
2018-04-17T20:33:38.423Z,11.03
2018-04-17T20:36:06.535Z,10.70
2018-04-17T20:38:34.821Z,11.07
2018-04-17T20:41:03.199Z,11.00
2018-04-17T20:43:31.491Z,10.83
2018-04-17T20:45:59.583Z,10.60
2018-04-17T20:48:27.697Z,10.87
2018-04-17T20:50:55.822Z,10.93
2018-04-17T20:53:24.082Z,10.07
2018-04-17T20:55:52.247Z,11.43
2018-04-17T20:58:21.767Z,11.37
2018-04-17T21:00:49.994Z,10.67
2018-04-17T21:03:18.273Z,11.27
2018-04-17T21:05:46.490Z,10.77
2018-04-17T21:08:14.782Z,11.00
2018-04-17T21:10:42.933Z,10.53
2018-04-17T21:13:11.247Z,10.73
2018-04-17T21:15:39.345Z,11.13
2018-04-17T21:18:07.668Z,11.67
2018-04-17T21:20:35.769Z,11.17
2018-04-17T21:23:03.874Z,11.33
2018-04-17T21:25:32.037Z,11.27
2018-04-17T21:28:00.325Z,11.73
2018-04-17T21:30:28.657Z,11.60
2018-04-17T21:32:56.741Z,11.97
2018-04-17T21:35:24.857Z,11.30
2018-04-17T21:37:52.935Z,11.23
2018-04-17T21:40:21.294Z,11.87
2018-04-17T21:42:49.373Z,11.83
2018-04-17T21:45:17.705Z,11.73
2018-04-17T21:47:46.143Z,10.87
2018-04-17T21:50:14.410Z,11.60
2018-04-17T21:52:42.499Z,11.43
2018-04-17T21:55:10.642Z,10.77
2018-04-17T21:57:38.910Z,10.93
2018-04-17T22:00:07.076Z,10.33
2018-04-17T22:02:35.548Z,10.73
2018-04-17T22:05:03.634Z,11.00
2018-04-17T22:07:31.885Z,12.33
2018-04-17T22:10:00.204Z,10.87
2018-04-17T22:12:28.318Z,12.10
2018-04-17T22:14:56.438Z,11.43
2018-04-17T22:17:24.689Z,10.20
2018-04-17T22:19:52.782Z,10.23
2018-04-17T22:22:20.883Z,11.73
2018-04-17T22:24:49.037Z,12.37
2018-04-17T22:27:17.419Z,11.30
2018-04-17T22:29:45.512Z,11.73
2018-04-17T22:32:13.597Z,12.57
2018-04-17T22:34:41.687Z,12.60
2018-04-17T22:37:09.874Z,11.63
2018-04-17T22:39:37.963Z,12.17
2018-04-17T22:42:06.058Z,11.37
2018-04-17T22:44:34.183Z,13.27
2018-04-17T22:47:02.561Z,12.30
2018-04-17T22:49:30.847Z,13.17
2018-04-17T22:51:58.963Z,12.77
2018-04-17T22:54:27.153Z,13.30
2018-04-17T22:56:55.563Z,11.23
2018-04-17T22:59:24.239Z,12.50
2018-04-17T23:01:52.467Z,13.63
2018-04-17T23:04:20.561Z,12.77
2018-04-17T23:06:48.667Z,13.57
2018-04-17T23:09:16.971Z,12.93
2018-04-17T23:11:45.067Z,13.10
2018-04-17T23:14:13.402Z,12.70
2018-04-17T23:16:41.779Z,11.80
2018-04-17T23:19:09.981Z,11.93
2018-04-17T23:21:38.099Z,11.47
2018-04-17T23:24:06.200Z,12.70
2018-04-17T23:26:34.460Z,13.13
2018-04-17T23:29:02.571Z,12.63
2018-04-17T23:31:30.820Z,12.63
2018-04-17T23:33:58.909Z,13.07
2018-04-17T23:36:27.181Z,12.50
2018-04-17T23:38:55.417Z,14.03
2018-04-17T23:41:23.745Z,13.20
2018-04-17T23:43:51.872Z,13.27
2018-04-17T23:46:20.257Z,12.73
2018-04-17T23:48:48.371Z,13.23
2018-04-17T23:51:16.627Z,13.30
2018-04-17T23:53:44.808Z,13.33
2018-04-17T23:56:13.026Z,13.07
2018-04-17T23:58:41.100Z,13.80
